Flora, IL

11:16 PM CDT am 23. März 2017 (GMT -0500)
Flora Municipal | | Change Station

Höhe 469 ft 38.66 °N, 88.45 °W | Updated 21 minutes ago

Heiter
Heiter
46 °F
gefühlte 42 °F
N
9
Wind Wechselnd Wind aus Südost

Heute
Max. -- | schwach -- °F
--% Regenrisiko
Gestern
Max. -- | schwach -- °F
Precip. -- inch
Druck 30.09 inch
Sichtweite 10.0 Meilen
Wolken Heiter
Windchill 42 °F
Taupunkt 41 °F
Feuchtigkeit 82%
Regen 0.19 inch
Schneehöhe Nicht verfügbar..
6:52 AM 7:08 PM
Letztes Viertel, 18% visible
METAR KFOA 240355Z AUTO 14008KT 10SM CLR 08/05 A3009 RMK AO2 T00800051
Druck 30.09 inch
Sichtweite 10.0 Meilen
Wolken Heiter
Windchill 42 °F
Taupunkt 41 °F
Feuchtigkeit 82%
Regen 0.19 inch
Schneehöhe Nicht verfügbar..
6:52 AM 7:08 PM
Letztes Viertel, 18% visible
METAR KFOA 240355Z AUTO 14008KT 10SM CLR 08/05 A3009 RMK AO2 T00800051

Get Severe Weather Alerts

Thanks for signing up!

Be on the lookout for a verification email in your inbox.

You'll start receiving the daily forecast at 8 AM.

×

10-Day Weather Forecast

Almanac

Astronomie

Mar. 23, 2017 Aufgang Untergang
Genaue Zeit
Bürgerliche Dämmerung
Nautische Dämmerung
Astronomische Dämmerung
Mond
Länge des sichtbaren Lichts
Tageslänge
Tomorrow will be .
, % of the Moon is Illuminated

Heutige Rekorde

State Highs State Lows

Community

WunderPhotos

Upload Photos

1,962,540 Fotos hochgeladen!

WunderBlog® & News

Nearby

Luftqualität

  Luftqualität LQ Index Schadstoff
Not available.

Schneehöhe

Station Depth Höhe

Erdbebenaktivität

Stadt Distance Mag. Time & Date
Minimum magnitude displayed is 2.5.

Erdbebenaktivität

Stadt Distance Mag. Time & Date
Minimum magnitude displayed is 2.5.

küstennahe Wassertemperaturen

Ort Temperatur

Stations

Wetterstationen in der Umgebung

Stationsstandort Temp. Windchill Taupunkt Feuchtigkeit Wind Precip. Höhe Aktualisiert Art
                   

Watches & Warnings

There are currently no watches in effect.